Time;durP1;ratioP1;P1;durP2;ratioP2;P2;SDS_P1;SDS_P2;PMS_P1;PMS_P2;Temp;Humidity;BMP_temperature;BMP_pressure;BME280_temperature;BME280_humidity;BME280_pressure;Samples;Min_cycle;Max_cycle;Signal;HPM_P1;HPM_P2
2024/01/31 00:01:35;;;;;;;11.65;2.05;;;5.60;99.90;;;;;;4976130;28;20134;-81
2024/01/31 00:04:01;;;;;;;10.18;1.90;;;5.50;99.90;;;;;;4975874;28;20041;-80
2024/01/31 00:06:27;;;;;;;8.65;2.10;;;5.60;99.90;;;;;;4954096;28;20404;-81
2024/01/31 00:08:54;;;;;;;7.90;1.70;;;5.50;99.90;;;;;;4963415;28;20121;-80
2024/01/31 00:11:20;;;;;;;7.18;1.88;;;5.60;99.90;;;;;;4980124;28;20042;-80
2024/01/31 00:13:45;;;;;;;9.18;1.83;;;5.50;99.90;;;;;;5003947;28;20045;-80
2024/01/31 00:16:13;;;;;;;7.22;1.83;;;5.60;99.90;;;;;;5012613;28;20431;-81
2024/01/31 00:18:42;;;;;;;7.05;1.77;;;5.60;99.90;;;;;;4998133;28;20035;-81
2024/01/31 00:21:08;;;;;;;8.20;2.45;;;5.60;99.90;;;;;;4988423;28;20434;-81
2024/01/31 00:23:34;;;;;;;8.30;1.90;;;5.50;99.90;;;;;;4978292;28;20034;-80
2024/01/31 00:25:59;;;;;;;5.72;1.70;;;5.60;99.90;;;;;;4976045;28;20293;-81
2024/01/31 00:28:25;;;;;;;7.90;1.73;;;5.60;99.90;;;;;;4985992;28;20046;-81
2024/01/31 00:30:51;;;;;;;8.60;1.85;;;5.50;99.90;;;;;;4965566;28;20077;-80
2024/01/31 00:33:17;;;;;;;6.45;1.60;;;5.60;99.90;;;;;;4969256;28;20054;-81
2024/01/31 00:35:43;;;;;;;8.10;2.03;;;5.60;99.90;;;;;;4970430;28;20548;-81
2024/01/31 00:38:08;;;;;;;6.80;1.85;;;5.50;99.90;;;;;;4987065;28;20053;-81
2024/01/31 00:40:34;;;;;;;5.40;1.60;;;5.60;99.90;;;;;;4986334;28;20031;-81
2024/01/31 00:43:00;;;;;;;6.97;1.80;;;5.60;99.90;;;;;;4964373;28;20077;-81
2024/01/31 00:45:28;;;;;;;7.28;1.90;;;5.60;99.90;;;;;;4957278;28;20042;-81
2024/01/31 00:47:54;;;;;;;7.68;1.90;;;5.50;99.90;;;;;;4965758;28;20038;-81
2024/01/31 00:50:20;;;;;;;7.20;1.88;;;5.60;99.90;;;;;;5011806;28;20041;-81
2024/01/31 00:52:45;;;;;;;7.60;1.77;;;5.60;99.90;;;;;;4970890;28;20077;-81
2024/01/31 00:55:11;;;;;;;5.63;1.70;;;5.60;99.90;;;;;;4968824;28;20030;-81
2024/01/31 00:57:37;;;;;;;6.55;1.70;;;5.60;99.90;;;;;;4937425;28;20097;-81
2024/01/31 01:00:08;;;;;;;8.80;2.13;;;5.60;99.90;;;;;;4969828;28;20030;-81
2024/01/31 01:02:36;;;;;;;7.57;1.70;;;5.60;99.90;;;;;;4997314;28;20042;-81
2024/01/31 01:05:03;;;;;;;6.28;1.60;;;5.60;99.90;;;;;;5002528;28;20064;-80
2024/01/31 01:07:28;;;;;;;7.07;1.70;;;5.50;99.90;;;;;;4986516;28;20065;-81
2024/01/31 01:09:54;;;;;;;8.07;1.73;;;5.90;99.90;;;;;;4969407;28;20046;-80
2024/01/31 01:12:20;;;;;;;5.25;1.98;;;5.60;99.90;;;;;;4983617;28;20042;-80
2024/01/31 01:14:45;;;;;;;5.40;1.40;;;5.60;99.90;;;;;;4962280;28;20061;-80
2024/01/31 01:17:11;;;;;;;6.90;1.50;;;5.60;99.90;;;;;;4970447;28;20030;-81
2024/01/31 01:19:37;;;;;;;6.25;1.67;;;5.60;99.90;;;;;;4969811;28;20569;-81
2024/01/31 01:22:04;;;;;;;5.85;1.60;;;5.60;99.90;;;;;;4969046;28;20057;-81
2024/01/31 01:24:30;;;;;;;3.65;1.40;;;5.50;99.90;;;;;;4984667;28;20286;-81
2024/01/31 01:26:55;;;;;;;6.45;1.80;;;5.50;99.90;;;;;;4953006;28;20270;-81
2024/01/31 01:29:21;;;;;;;4.75;1.50;;;5.60;99.90;;;;;;4970226;28;20104;-80
2024/01/31 01:31:47;;;;;;;5.50;1.40;;;6.80;99.90;;;;;;4950925;28;20133;-81
2024/01/31 01:34:12;;;;;;;8.25;1.90;;;5.60;99.90;;;;;;4985375;28;20027;-81
2024/01/31 01:36:38;;;;;;;5.93;1.60;;;5.90;99.90;;;;;;4968394;28;20089;-81
2024/01/31 01:39:04;;;;;;;4.05;1.25;;;5.50;99.90;;;;;;4969405;28;20052;-81
2024/01/31 01:41:29;;;;;;;7.13;1.60;;;5.60;99.90;;;;;;4979641;28;20117;-80
2024/01/31 01:43:55;;;;;;;6.10;1.50;;;5.60;99.90;;;;;;5003885;28;20052;-81
2024/01/31 01:46:22;;;;;;;7.07;1.67;;;5.70;99.90;;;;;;4970210;28;20047;-81
2024/01/31 01:48:50;;;;;;;5.40;1.85;;;5.70;99.90;;;;;;4985288;28;20073;-81
2024/01/31 01:51:18;;;;;;;8.13;1.83;;;5.70;99.90;;;;;;4989679;28;20089;-81
2024/01/31 01:53:45;;;;;;;3.95;1.30;;;5.60;99.90;;;;;;4964437;28;20042;-81
2024/01/31 01:56:13;;;;;;;6.57;1.40;;;5.60;99.90;;;;;;4969624;28;20113;-81
2024/01/31 01:58:41;;;;;;;6.85;1.50;;;5.60;99.90;;;;;;4983225;28;20542;-81
2024/01/31 02:01:07;;;;;;;6.97;1.55;;;5.60;99.90;;;;;;4986762;28;20097;-80
2024/01/31 02:03:35;;;;;;;7.40;1.63;;;5.90;99.90;;;;;;4999217;28;20550;-81
2024/01/31 02:06:01;;;;;;;8.32;1.52;;;5.50;99.90;;;;;;4985799;28;20072;-81
2024/01/31 02:08:28;;;;;;;7.40;1.50;;;5.50;99.90;;;;;;4983994;28;20410;-81
2024/01/31 02:10:54;;;;;;;7.90;1.60;;;5.50;99.90;;;;;;4985150;28;20443;-81
2024/01/31 02:13:19;;;;;;;6.60;1.50;;;5.40;99.90;;;;;;4968498;28;20373;-81
2024/01/31 02:15:56;;;;;;;4.70;1.35;;;6.00;99.90;;;;;;4964158;28;20082;-81
2024/01/31 02:18:27;;;;;;;7.85;1.63;;;5.40;99.90;;;;;;5000377;28;20041;-81
2024/01/31 02:20:53;;;;;;;5.95;1.50;;;5.30;99.90;;;;;;4974797;28;20046;-81
2024/01/31 02:23:20;;;;;;;7.28;1.70;;;5.30;99.90;;;;;;5016942;28;20060;-81
2024/01/31 02:25:46;;;;;;;5.80;1.60;;;5.20;99.90;;;;;;4961770;28;20071;-81
2024/01/31 02:28:12;;;;;;;6.05;1.92;;;5.20;99.90;;;;;;4984772;28;20070;-81
2024/01/31 02:30:37;;;;;;;5.00;1.40;;;5.10;99.90;;;;;;4984726;28;20124;-80
2024/01/31 02:33:03;;;;;;;6.03;1.55;;;5.10;99.90;;;;;;4960730;28;20049;-81
2024/01/31 02:35:33;;;;;;;8.65;1.50;;;5.10;99.90;;;;;;4968677;28;20121;-81
2024/01/31 02:38:00;;;;;;;8.05;1.48;;;5.10;99.90;;;;;;4999464;28;20035;-81
2024/01/31 02:40:27;;;;;;;6.03;1.60;;;5.10;99.90;;;;;;4952058;28;20060;-81
2024/01/31 02:42:53;;;;;;;6.95;1.60;;;5.00;99.90;;;;;;4966956;28;20066;-81
2024/01/31 02:45:19;;;;;;;6.18;1.67;;;5.00;99.90;;;;;;4986393;28;20681;-81
2024/01/31 02:47:44;;;;;;;10.27;1.95;;;5.00;99.90;;;;;;4966502;28;20312;-81
2024/01/31 02:50:10;;;;;;;6.40;1.70;;;4.90;99.90;;;;;;4968179;28;20035;-81
2024/01/31 02:52:36;;;;;;;5.20;1.33;;;4.90;99.90;;;;;;4984502;28;20038;-81
2024/01/31 02:55:03;;;;;;;6.45;1.50;;;4.90;99.90;;;;;;4957937;28;20045;-81
2024/01/31 02:57:29;;;;;;;5.95;1.42;;;4.90;99.90;;;;;;4968318;28;20416;-81
2024/01/31 02:59:55;;;;;;;6.88;1.60;;;4.90;99.90;;;;;;4984457;28;20035;-81
2024/01/31 03:02:21;;;;;;;8.20;1.50;;;4.80;99.90;;;;;;4968540;28;20038;-81
2024/01/31 03:04:47;;;;;;;5.72;1.48;;;4.90;99.90;;;;;;4985314;28;20042;-81
2024/01/31 03:07:13;;;;;;;6.55;1.75;;;4.80;99.90;;;;;;4956201;28;20042;-81
2024/01/31 03:09:39;;;;;;;7.20;2.00;;;5.00;99.90;;;;;;4985447;28;21049;-81
2024/01/31 03:12:05;;;;;;;7.22;1.80;;;4.80;99.90;;;;;;4983227;28;20046;-81
2024/01/31 03:14:34;;;;;;;8.80;1.60;;;4.70;99.90;;;;;;4983339;28;20038;-81
2024/01/31 03:17:00;;;;;;;6.95;1.60;;;5.70;99.90;;;;;;4984425;28;20189;-81
2024/01/31 03:19:30;;;;;;;5.30;1.60;;;4.80;99.90;;;;;;4984439;28;20046;-81
2024/01/31 03:21:56;;;;;;;4.20;1.50;;;4.80;99.90;;;;;;4980064;28;20042;-81
2024/01/31 03:24:22;;;;;;;4.95;1.55;;;4.70;99.90;;;;;;4967653;28;20808;-81
2024/01/31 03:26:48;;;;;;;5.93;1.70;;;4.70;99.90;;;;;;4984020;28;20081;-81
2024/01/31 03:29:14;;;;;;;5.50;1.50;;;5.60;99.90;;;;;;4993356;28;20043;-81
2024/01/31 03:31:40;;;;;;;7.28;1.58;;;5.10;99.90;;;;;;4984149;28;20049;-81
2024/01/31 03:34:05;;;;;;;7.00;1.40;;;4.70;99.90;;;;;;4961907;28;20472;-81
2024/01/31 03:36:32;;;;;;;7.35;1.70;;;5.40;99.90;;;;;;4999042;28;20037;-81
2024/01/31 03:38:59;;;;;;;6.72;1.80;;;4.70;99.90;;;;;;5013909;28;20046;-81
2024/01/31 03:41:28;;;;;;;4.45;1.40;;;4.80;99.90;;;;;;4937448;28;20572;-81
2024/01/31 03:43:55;;;;;;;5.40;1.60;;;4.60;99.90;;;;;;4969344;28;20043;-81
2024/01/31 03:46:21;;;;;;;5.05;1.50;;;5.10;99.90;;;;;;4999962;28;20085;-81
2024/01/31 03:48:47;;;;;;;5.82;1.80;;;5.40;99.90;;;;;;4950392;28;20118;-81
2024/01/31 03:51:23;;;;;;;6.60;1.70;;;4.60;99.90;;;;;;5000981;28;20521;-81
2024/01/31 03:53:50;;;;;;;5.93;1.73;;;4.60;99.90;;;;;;4987078;28;20512;-81
2024/01/31 03:56:16;;;;;;;6.40;1.55;;;4.50;99.90;;;;;;4963283;28;20104;-81
2024/01/31 03:58:43;;;;;;;7.35;1.75;;;4.60;99.90;;;;;;5000268;28;20045;-81
2024/01/31 04:01:13;;;;;;;5.82;1.60;;;4.50;99.90;;;;;;4970883;28;20158;-81
2024/01/31 04:03:39;;;;;;;6.25;1.60;;;4.60;99.90;;;;;;5003829;28;20066;-81
2024/01/31 04:06:05;;;;;;;6.13;1.83;;;4.60;99.90;;;;;;4972855;28;20538;-81
2024/01/31 04:08:31;;;;;;;6.32;1.70;;;4.60;99.90;;;;;;4955708;28;20046;-81
2024/01/31 04:10:57;;;;;;;7.18;1.80;;;4.60;99.90;;;;;;4970272;28;20046;-81
2024/01/31 04:13:22;;;;;;;7.03;1.67;;;4.50;99.90;;;;;;4954090;28;20042;-81
2024/01/31 04:15:48;;;;;;;5.60;1.40;;;4.60;99.90;;;;;;4987993;28;20406;-81
2024/01/31 04:18:14;;;;;;;6.30;1.58;;;4.50;99.90;;;;;;4972819;28;20045;-81
2024/01/31 04:20:39;;;;;;;5.80;1.50;;;4.50;99.90;;;;;;4986172;28;20045;-81
2024/01/31 04:23:06;;;;;;;7.05;1.70;;;4.50;99.90;;;;;;4965884;28;20114;-81
2024/01/31 04:25:32;;;;;;;5.18;1.30;;;4.50;99.90;;;;;;4960561;28;20043;-81
2024/01/31 04:28:07;;;;;;;6.22;1.50;;;4.70;99.90;;;;;;4987060;28;20121;-81
2024/01/31 04:30:33;;;;;;;6.80;1.65;;;4.20;99.90;;;;;;4987539;28;20045;-81
2024/01/31 04:33:02;;;;;;;4.90;1.58;;;4.40;99.90;;;;;;4971299;28;20042;-81
2024/01/31 04:35:28;;;;;;;6.38;1.60;;;4.10;99.90;;;;;;4986148;28;20035;-81
2024/01/31 04:37:54;;;;;;;7.55;1.80;;;5.20;99.90;;;;;;4972685;28;20538;-81
2024/01/31 04:40:20;;;;;;;5.00;1.50;;;4.00;99.90;;;;;;4986637;28;20161;-81
2024/01/31 04:42:47;;;;;;;6.38;1.60;;;4.00;99.90;;;;;;4971219;28;20125;-81
2024/01/31 04:45:13;;;;;;;5.80;1.50;;;4.00;99.90;;;;;;5003096;28;20042;-81
2024/01/31 04:47:42;;;;;;;6.55;1.65;;;4.00;99.90;;;;;;4963983;28;20120;-81
2024/01/31 04:50:09;;;;;;;5.95;1.65;;;3.90;99.90;;;;;;5019392;28;20116;-81
2024/01/31 04:52:35;;;;;;;6.47;1.50;;;3.90;99.90;;;;;;4971371;28;20115;-81
2024/01/31 04:55:01;;;;;;;6.60;1.60;;;5.90;99.90;;;;;;4987192;28;20035;-82
2024/01/31 04:57:26;;;;;;;8.85;2.03;;;3.90;99.90;;;;;;4983353;28;20039;-81
2024/01/31 04:59:52;;;;;;;7.20;1.60;;;3.80;99.90;;;;;;4985962;28;20095;-81
2024/01/31 05:02:18;;;;;;;6.55;1.63;;;3.80;99.90;;;;;;4967423;28;20416;-81
2024/01/31 05:04:43;;;;;;;6.40;1.50;;;3.90;99.90;;;;;;5003808;28;20038;-81
2024/01/31 05:07:09;;;;;;;8.68;1.80;;;3.80;99.90;;;;;;4988732;28;20034;-81
2024/01/31 05:09:35;;;;;;;6.20;1.83;;;3.70;99.90;;;;;;4987549;28;20038;-81
2024/01/31 05:12:00;;;;;;;6.82;1.80;;;3.70;99.90;;;;;;4985821;28;20072;-81
2024/01/31 05:14:26;;;;;;;7.57;1.60;;;3.70;99.90;;;;;;4954162;28;20521;-81
2024/01/31 05:16:52;;;;;;;8.65;1.60;;;3.70;99.90;;;;;;5002494;28;20027;-81
2024/01/31 05:19:18;;;;;;;4.75;1.80;;;4.70;99.90;;;;;;4968589;28;20074;-81
2024/01/31 05:21:48;;;;;;;8.00;1.77;;;3.60;99.90;;;;;;4947796;28;20046;-81
2024/01/31 05:24:14;;;;;;;5.82;1.50;;;3.70;99.90;;;;;;5014668;28;20049;-81
2024/01/31 05:26:42;;;;;;;5.13;1.55;;;4.60;99.90;;;;;;4969817;28;20042;-81
2024/01/31 05:29:07;;;;;;;6.35;1.50;;;4.20;99.90;;;;;;4963218;28;20064;-81
2024/01/31 05:31:33;;;;;;;7.25;1.55;;;3.70;99.90;;;;;;4981298;28;20042;-81
2024/01/31 05:33:59;;;;;;;5.72;1.58;;;3.80;99.90;;;;;;5002741;28;20034;-81
2024/01/31 05:36:25;;;;;;;4.10;1.35;;;3.70;99.90;;;;;;4967887;28;20176;-81
2024/01/31 05:38:50;;;;;;;6.88;1.60;;;3.80;99.90;;;;;;4999610;28;20518;-81
2024/01/31 05:41:16;;;;;;;4.55;1.38;;;4.10;99.90;;;;;;4984405;28;20615;-81
2024/01/31 05:43:42;;;;;;;5.10;1.42;;;3.80;99.90;;;;;;4983216;28;20492;-81
2024/01/31 05:46:08;;;;;;;4.32;1.40;;;4.20;99.90;;;;;;4969010;28;20065;-81
2024/01/31 05:48:33;;;;;;;6.30;1.63;;;3.80;99.90;;;;;;4983285;28;20177;-81
2024/01/31 05:50:59;;;;;;;4.32;1.60;;;4.10;99.90;;;;;;4982909;28;20046;-81
2024/01/31 05:53:25;;;;;;;4.20;1.50;;;4.90;99.90;;;;;;5004241;28;20038;-81
2024/01/31 05:55:51;;;;;;;7.80;1.65;;;3.90;99.90;;;;;;4968594;28;20435;-81
2024/01/31 05:58:23;;;;;;;5.32;1.40;;;3.90;99.90;;;;;;5004158;28;20038;-81
2024/01/31 06:00:49;;;;;;;4.20;1.70;;;3.90;99.90;;;;;;4970749;28;20503;-81
2024/01/31 06:03:15;;;;;;;5.75;1.40;;;3.90;99.90;;;;;;5001627;28;20073;-81
2024/01/31 06:05:41;;;;;;;4.38;1.42;;;3.90;99.90;;;;;;4959782;28;20419;-81
2024/01/31 06:08:07;;;;;;;6.60;1.60;;;4.10;99.90;;;;;;4968950;28;20460;-81
2024/01/31 06:10:33;;;;;;;5.85;1.60;;;4.00;99.90;;;;;;4972738;28;20073;-81
2024/01/31 06:12:59;;;;;;;6.03;1.65;;;4.10;99.90;;;;;;4957488;28;20480;-81
2024/01/31 06:15:25;;;;;;;6.55;1.45;;;4.00;99.90;;;;;;4950212;28;20559;-81
2024/01/31 06:17:51;;;;;;;5.78;1.70;;;4.00;99.90;;;;;;4968545;28;20061;-81
2024/01/31 06:20:17;;;;;;;4.72;1.45;;;4.80;99.90;;;;;;4939629;28;20045;-81
2024/01/31 06:22:43;;;;;;;5.30;1.67;;;4.00;99.90;;;;;;4956788;28;20042;-81
2024/01/31 06:25:09;;;;;;;5.93;2.00;;;4.50;99.90;;;;;;4969643;28;20128;-81
2024/01/31 06:27:37;;;;;;;7.72;1.83;;;4.10;99.90;;;;;;4951784;28;20083;-81
2024/01/31 06:30:04;;;;;;;5.78;1.70;;;4.10;99.90;;;;;;5001260;28;20388;-81
2024/01/31 06:32:32;;;;;;;6.95;1.50;;;4.20;99.90;;;;;;4956340;28;20327;-81
2024/01/31 06:34:59;;;;;;;5.55;1.70;;;4.10;99.90;;;;;;4971938;28;20043;-81
2024/01/31 06:37:26;;;;;;;7.63;1.60;;;4.20;99.90;;;;;;4969720;28;20043;-80
2024/01/31 06:39:52;;;;;;;5.13;1.58;;;4.20;99.90;;;;;;4971171;28;20050;-81
2024/01/31 06:42:18;;;;;;;8.20;1.58;;;4.20;99.90;;;;;;4972776;28;20058;-81
2024/01/31 06:44:43;;;;;;;4.38;1.60;;;4.20;99.90;;;;;;4970851;28;20038;-81
2024/01/31 06:47:09;;;;;;;7.00;1.73;;;4.20;99.90;;;;;;5002524;28;20074;-81
2024/01/31 06:49:35;;;;;;;6.70;2.08;;;4.30;99.90;;;;;;4971908;28;20086;-81
2024/01/31 06:52:00;;;;;;;7.75;1.80;;;4.30;99.90;;;;;;5020787;28;20042;-81
2024/01/31 06:54:26;;;;;;;7.10;1.63;;;4.30;99.90;;;;;;4972751;28;20540;-81
2024/01/31 06:56:52;;;;;;;8.73;1.90;;;4.70;99.90;;;;;;4973015;28;20038;-81
2024/01/31 06:59:17;;;;;;;9.43;1.80;;;4.40;99.90;;;;;;4988615;28;20215;-81
2024/01/31 07:01:43;;;;;;;6.97;1.60;;;4.40;99.90;;;;;;4956130;28;20042;-81
2024/01/31 07:04:09;;;;;;;7.63;1.70;;;5.30;99.90;;;;;;4972807;28;20077;-80
2024/01/31 07:06:35;;;;;;;6.57;1.80;;;5.30;99.90;;;;;;4954375;28;20043;-81
2024/01/31 07:09:00;;;;;;;4.75;1.58;;;4.40;99.90;;;;;;5000091;28;20053;-81
2024/01/31 07:11:26;;;;;;;6.55;1.77;;;4.40;99.90;;;;;;5017175;28;20053;-82
2024/01/31 07:13:52;;;;;;;7.50;1.80;;;4.40;99.90;;;;;;4960701;28;20034;-82
2024/01/31 07:16:18;;;;;;;4.88;1.85;;;4.40;99.90;;;;;;4997939;28;20026;-82
2024/01/31 07:18:45;;;;;;;6.57;1.65;;;4.40;99.90;;;;;;4950449;28;20038;-82
2024/01/31 07:21:22;;;;;;;8.32;1.70;;;4.80;99.90;;;;;;4985196;28;20169;-82
2024/01/31 07:23:47;;;;;;;5.40;1.60;;;4.40;99.90;;;;;;4978824;28;20616;-82
2024/01/31 07:26:22;;;;;;;8.00;2.15;;;4.70;99.90;;;;;;4984270;28;20041;-82
2024/01/31 07:28:47;;;;;;;7.00;1.70;;;4.40;99.90;;;;;;4974845;28;20049;-82
2024/01/31 07:31:13;;;;;;;10.88;2.50;;;4.50;99.90;;;;;;4949936;28;20194;-82
2024/01/31 07:33:39;;;;;;;6.20;1.92;;;4.50;99.90;;;;;;4968806;28;20096;-82
2024/01/31 07:36:05;;;;;;;6.05;1.80;;;5.10;99.90;;;;;;5002044;28;20557;-82
2024/01/31 07:38:30;;;;;;;7.50;1.95;;;4.60;99.90;;;;;;4968957;28;20117;-82
2024/01/31 07:40:56;;;;;;;7.90;2.20;;;4.50;99.90;;;;;;4954162;28;20117;-83
2024/01/31 07:43:23;;;;;;;7.25;1.90;;;4.60;99.90;;;;;;4951476;28;20570;-82
2024/01/31 07:45:49;;;;;;;9.10;1.95;;;4.80;99.90;;;;;;5002152;28;20608;-82
2024/01/31 07:48:14;;;;;;;7.45;2.00;;;4.70;99.90;;;;;;5003329;28;20073;-83
2024/01/31 07:50:40;;;;;;;7.85;2.00;;;4.60;99.90;;;;;;4985487;28;20066;-82
2024/01/31 07:53:06;;;;;;;5.15;1.63;;;4.60;99.90;;;;;;4988215;28;20483;-82
2024/01/31 07:55:31;;;;;;;7.40;1.80;;;4.60;99.90;;;;;;4972067;28;20035;-82
2024/01/31 07:57:57;;;;;;;6.68;1.90;;;4.70;99.90;;;;;;4968527;28;20046;-82
2024/01/31 08:00:23;;;;;;;5.75;1.70;;;4.80;99.90;;;;;;4990567;28;20088;-82
2024/01/31 08:02:48;;;;;;;7.35;2.00;;;4.70;99.90;;;;;;4990129;28;20125;-82
2024/01/31 08:05:14;;;;;;;6.57;1.90;;;4.70;99.90;;;;;;4991111;28;20034;-83
2024/01/31 08:07:44;;;;;;;7.93;1.80;;;4.80;99.90;;;;;;4965229;28;20038;-83
2024/01/31 08:10:12;;;;;;;7.05;2.03;;;4.80;99.90;;;;;;4983808;28;20057;-82
2024/01/31 08:12:38;;;;;;;6.05;1.70;;;4.80;99.90;;;;;;4988327;28;20381;-82
2024/01/31 08:15:04;;;;;;;7.53;2.00;;;4.80;99.90;;;;;;4986585;28;20030;-83
2024/01/31 08:17:30;;;;;;;6.10;1.77;;;4.80;99.90;;;;;;4984123;28;20597;-82
2024/01/31 08:19:55;;;;;;;7.10;2.00;;;4.90;99.90;;;;;;5002861;28;20034;-82
2024/01/31 08:22:21;;;;;;;9.32;2.15;;;4.90;99.90;;;;;;4985894;28;20423;-82
2024/01/31 08:24:47;;;;;;;6.90;1.88;;;4.90;99.90;;;;;;4983018;28;20050;-82
2024/01/31 08:27:13;;;;;;;6.80;1.80;;;4.90;99.90;;;;;;4995261;28;20089;-82
2024/01/31 08:29:38;;;;;;;9.90;2.78;;;4.90;99.90;;;;;;4954169;28;20057;-82
2024/01/31 08:32:04;;;;;;;8.05;2.08;;;4.90;99.90;;;;;;4984785;28;20115;-82
2024/01/31 08:34:30;;;;;;;7.22;1.77;;;5.00;99.90;;;;;;4955034;28;20076;-82
2024/01/31 08:36:56;;;;;;;6.85;1.90;;;5.00;99.90;;;;;;4969054;28;20473;-82
2024/01/31 08:39:22;;;;;;;8.32;2.22;;;5.00;99.90;;;;;;4986315;28;20277;-82
2024/01/31 08:41:48;;;;;;;8.93;2.20;;;5.10;99.90;;;;;;4971330;28;20062;-82
2024/01/31 08:44:15;;;;;;;6.50;2.10;;;5.10;99.90;;;;;;4969556;28;20039;-82
2024/01/31 08:46:41;;;;;;;6.10;2.13;;;5.10;99.90;;;;;;5003274;28;20589;-82
2024/01/31 08:49:06;;;;;;;5.43;1.95;;;5.10;99.90;;;;;;4985143;28;20125;-82
2024/01/31 08:51:35;;;;;;;7.93;2.25;;;5.10;99.90;;;;;;4953751;28;20496;-82
2024/01/31 08:54:01;;;;;;;7.55;2.03;;;5.10;99.90;;;;;;5017738;28;20038;-82
2024/01/31 08:56:27;;;;;;;8.35;2.50;;;5.10;99.90;;;;;;4969488;28;20042;-81
2024/01/31 08:58:53;;;;;;;8.35;2.58;;;5.20;99.90;;;;;;4969956;28;20783;-82
2024/01/31 09:01:18;;;;;;;8.48;2.35;;;5.20;99.90;;;;;;4985522;28;20073;-82
2024/01/31 09:03:44;;;;;;;7.68;2.30;;;5.20;99.90;;;;;;4969879;28;20038;-82
2024/01/31 09:06:10;;;;;;;8.45;2.28;;;5.20;99.90;;;;;;4985831;28;20065;-81
2024/01/31 09:08:36;;;;;;;7.88;2.30;;;5.30;99.90;;;;;;4952191;28;20061;-82
2024/01/31 09:11:02;;;;;;;7.60;2.50;;;5.30;99.90;;;;;;4985534;28;20121;-82
2024/01/31 09:13:28;;;;;;;8.50;2.70;;;5.30;99.90;;;;;;4966587;28;20042;-82
2024/01/31 09:15:54;;;;;;;9.55;2.60;;;5.40;99.90;;;;;;4970175;28;20101;-82
2024/01/31 09:18:20;;;;;;;8.75;2.58;;;5.40;99.90;;;;;;4998399;28;20069;-82
2024/01/31 09:20:45;;;;;;;7.80;2.55;;;5.40;99.90;;;;;;4986120;28;20621;-82
2024/01/31 09:23:11;;;;;;;10.43;2.70;;;5.50;99.90;;;;;;4984932;28;20066;-82
2024/01/31 09:25:37;;;;;;;7.32;2.30;;;5.50;99.90;;;;;;4984414;28;20173;-82
2024/01/31 09:28:03;;;;;;;8.25;2.80;;;5.60;99.90;;;;;;5001177;28;20046;-82
2024/01/31 09:30:29;;;;;;;9.23;3.20;;;5.60;99.90;;;;;;4999420;28;22129;-81
2024/01/31 09:32:54;;;;;;;8.90;2.90;;;5.60;99.90;;;;;;4982300;28;20050;-81
2024/01/31 09:35:20;;;;;;;8.35;2.88;;;5.60;99.90;;;;;;4984705;28;20046;-82
2024/01/31 09:37:46;;;;;;;8.55;3.22;;;5.70;99.90;;;;;;4984593;28;20108;-82
2024/01/31 09:40:15;;;;;;;8.68;3.38;;;5.70;99.90;;;;;;4984596;28;20073;-82
2024/01/31 09:42:43;;;;;;;8.00;3.40;;;5.70;99.90;;;;;;4957008;28;20539;-82
2024/01/31 09:45:12;;;;;;;8.73;3.28;;;5.70;99.90;;;;;;4955982;28;20523;-82
2024/01/31 09:47:40;;;;;;;9.25;3.20;;;5.70;99.90;;;;;;5019508;28;20065;-82
2024/01/31 09:50:07;;;;;;;8.52;3.20;;;5.70;99.90;;;;;;4984740;28;20068;-82
2024/01/31 09:52:35;;;;;;;8.50;3.47;;;5.80;99.90;;;;;;4993580;28;20049;-82
2024/01/31 09:55:04;;;;;;;8.70;3.75;;;5.80;99.90;;;;;;4979049;28;20104;-82
2024/01/31 09:57:30;;;;;;;9.45;3.90;;;5.80;99.90;;;;;;4981074;28;20345;-82
2024/01/31 09:59:57;;;;;;;8.18;3.78;;;5.80;99.90;;;;;;4983701;28;20048;-81
2024/01/31 10:02:23;;;;;;;8.68;3.95;;;5.80;99.90;;;;;;4968191;28;20046;-81
2024/01/31 10:04:49;;;;;;;10.07;4.00;;;5.90;99.90;;;;;;4951881;28;20506;-81
2024/01/31 10:07:33;;;;;;;10.23;4.53;;;5.90;99.90;;;;;;4984967;28;20142;-81
2024/01/31 10:09:59;;;;;;;9.85;4.43;;;5.90;99.90;;;;;;4961318;28;20133;-81
2024/01/31 10:12:26;;;;;;;10.05;4.57;;;5.90;99.90;;;;;;4995292;28;20056;-82
2024/01/31 10:14:52;;;;;;;9.88;4.55;;;6.00;99.90;;;;;;4999635;28;20039;-82
2024/01/31 10:17:22;;;;;;;9.20;4.45;;;6.00;99.90;;;;;;4960312;28;20137;-82
2024/01/31 10:19:51;;;;;;;10.30;5.00;;;6.10;99.90;;;;;;4949246;28;20046;-82
2024/01/31 10:22:18;;;;;;;9.00;4.70;;;6.10;99.90;;;;;;4981179;28;20053;-81
2024/01/31 10:24:49;;;;;;;9.90;4.80;;;6.10;99.90;;;;;;4968579;28;20121;-81
2024/01/31 10:27:14;;;;;;;9.63;4.75;;;6.10;99.90;;;;;;4965552;28;20034;-82
2024/01/31 10:29:40;;;;;;;9.68;5.07;;;6.20;99.90;;;;;;4985001;28;20038;-82
2024/01/31 10:32:07;;;;;;;10.52;4.68;;;6.20;99.90;;;;;;4935949;28;20050;-81
2024/01/31 10:34:34;;;;;;;9.82;4.70;;;6.20;99.90;;;;;;4983709;28;20123;-81
2024/01/31 10:37:01;;;;;;;10.45;5.55;;;6.20;99.90;;;;;;5016312;28;20070;-82
2024/01/31 10:39:28;;;;;;;9.27;4.75;;;6.20;99.90;;;;;;4951853;28;21439;-82
2024/01/31 10:41:55;;;;;;;10.35;5.05;;;6.20;99.90;;;;;;4967264;28;20054;-81
2024/01/31 10:44:21;;;;;;;10.13;4.75;;;6.30;99.90;;;;;;4961059;28;20047;-81
2024/01/31 10:46:47;;;;;;;9.32;4.38;;;6.30;99.90;;;;;;4967734;28;20115;-82
2024/01/31 10:49:16;;;;;;;10.88;5.10;;;6.30;99.90;;;;;;4982748;28;20518;-82
2024/01/31 10:51:55;;;;;;;9.63;4.75;;;6.40;99.90;;;;;;4983926;28;20049;-81
2024/01/31 10:54:25;;;;;;;8.90;4.43;;;6.60;99.90;;;;;;4962251;28;20046;-83
2024/01/31 10:56:52;;;;;;;9.52;4.88;;;6.40;99.90;;;;;;4964110;28;20042;-82
2024/01/31 10:59:18;;;;;;;9.32;4.90;;;6.40;99.90;;;;;;4966279;28;20039;-82
2024/01/31 11:02:14;;;;;;;10.38;4.90;;;6.50;99.90;;;;;;4981499;28;20042;-82
2024/01/31 11:04:41;;;;;;;9.75;4.72;;;6.50;99.90;;;;;;4982799;28;20047;-82
2024/01/31 11:07:20;;;;;;;8.82;4.40;;;6.50;99.90;;;;;;4983838;28;20300;-82
2024/01/31 11:09:46;;;;;;;9.80;4.55;;;6.50;99.90;;;;;;5004889;28;20515;-82
2024/01/31 11:12:15;;;;;;;9.57;4.95;;;6.60;99.90;;;;;;5004054;28;20034;-82
2024/01/31 11:14:43;;;;;;;9.77;4.63;;;6.60;99.90;;;;;;4986933;28;21359;-82
2024/01/31 11:17:18;;;;;;;9.02;4.78;;;6.50;99.90;;;;;;4960989;28;20333;-82
2024/01/31 11:19:49;;;;;;;9.35;4.55;;;6.60;99.90;;;;;;4987822;28;20046;-81
2024/01/31 11:22:15;;;;;;;12.50;5.20;;;6.60;99.90;;;;;;4989287;28;20050;-82
2024/01/31 11:24:49;;;;;;;9.77;4.60;;;6.60;99.90;;;;;;4967146;28;20619;-82
2024/01/31 11:27:16;;;;;;;10.10;4.85;;;6.60;99.90;;;;;;4978282;28;20042;-82
2024/01/31 11:29:43;;;;;;;8.98;4.03;;;6.60;99.90;;;;;;4986862;28;20512;-82
2024/01/31 11:32:09;;;;;;;8.52;4.22;;;6.60;99.90;;;;;;4968611;28;20104;-82
2024/01/31 11:34:39;;;;;;;8.43;3.90;;;6.60;99.90;;;;;;5001797;28;20038;-82
2024/01/31 11:37:05;;;;;;;8.35;4.20;;;6.60;99.90;;;;;;4986726;28;20045;-82
2024/01/31 11:39:31;;;;;;;8.43;3.72;;;6.60;99.90;;;;;;4980122;28;20505;-83
2024/01/31 11:41:57;;;;;;;8.32;3.83;;;6.60;99.90;;;;;;4999131;28;20103;-83
2024/01/31 11:44:23;;;;;;;8.32;3.80;;;6.60;99.90;;;;;;5000519;28;20050;-83
2024/01/31 11:46:50;;;;;;;8.13;3.50;;;6.70;99.90;;;;;;5003914;28;20096;-83
2024/01/31 11:49:17;;;;;;;9.15;3.72;;;6.70;99.90;;;;;;4987045;28;20061;-83
2024/01/31 11:51:42;;;;;;;8.70;3.78;;;6.70;99.90;;;;;;5002901;28;20076;-83
2024/01/31 11:54:09;;;;;;;8.00;3.72;;;6.70;99.90;;;;;;4965547;28;20065;-83
2024/01/31 11:56:36;;;;;;;8.38;3.50;;;6.60;99.90;;;;;;4966146;28;20449;-82
2024/01/31 11:59:03;;;;;;;8.90;3.70;;;6.70;99.90;;;;;;4970465;28;20030;-83
2024/01/31 12:01:31;;;;;;;12.82;4.55;;;6.70;99.90;;;;;;4967946;28;20053;-83
2024/01/31 12:03:56;;;;;;;11.73;4.93;;;6.70;99.90;;;;;;4973406;28;20030;-83
2024/01/31 12:06:22;;;;;;;9.57;4.15;;;6.60;99.90;;;;;;4969862;28;20117;-83
2024/01/31 12:08:49;;;;;;;8.85;4.38;;;6.60;99.90;;;;;;4985016;28;20068;-82
2024/01/31 12:11:16;;;;;;;8.70;3.80;;;6.60;99.90;;;;;;4970808;28;20088;-83
2024/01/31 12:13:42;;;;;;;9.07;4.00;;;6.60;99.90;;;;;;4986284;28;20042;-82
2024/01/31 12:16:09;;;;;;;9.35;3.55;;;6.60;99.90;;;;;;4957766;28;20041;-83
2024/01/31 12:18:35;;;;;;;8.38;3.97;;;6.60;99.90;;;;;;5000172;28;20129;-83
2024/01/31 12:21:05;;;;;;;8.02;3.95;;;6.80;99.90;;;;;;4969835;28;20189;-83
2024/01/31 12:23:31;;;;;;;8.98;3.90;;;6.60;99.90;;;;;;4985592;28;20056;-83
2024/01/31 12:25:58;;;;;;;8.55;4.10;;;6.60;99.90;;;;;;5002252;28;20038;-83
2024/01/31 12:28:24;;;;;;;9.63;4.10;;;6.60;99.90;;;;;;4984685;28;20046;-82
2024/01/31 12:30:51;;;;;;;8.43;3.80;;;6.60;99.90;;;;;;4970861;28;20177;-83
2024/01/31 12:33:17;;;;;;;8.20;3.55;;;6.70;99.90;;;;;;4970846;28;20085;-83
2024/01/31 12:35:46;;;;;;;8.35;3.92;;;6.60;99.90;;;;;;4967848;28;20049;-83
2024/01/31 12:38:15;;;;;;;8.98;4.10;;;6.70;99.90;;;;;;4968401;28;20030;-83
2024/01/31 12:40:41;;;;;;;9.52;3.88;;;6.60;99.90;;;;;;4986619;28;20113;-83
2024/01/31 12:43:07;;;;;;;7.78;3.67;;;6.60;99.90;;;;;;4970777;28;20599;-83
2024/01/31 12:45:33;;;;;;;8.05;3.88;;;6.60;99.90;;;;;;4986184;28;20039;-83
2024/01/31 12:47:59;;;;;;;8.00;3.58;;;6.60;99.90;;;;;;5002078;28;20699;-83
2024/01/31 12:50:25;;;;;;;8.77;3.88;;;6.70;99.90;;;;;;4970065;28;20140;-83
2024/01/31 12:52:52;;;;;;;8.10;3.75;;;6.70;99.90;;;;;;4964125;28;20057;-83